Time;durP1;ratioP1;P1;durP2;ratioP2;P2;SDS_P1;SDS_P2;PMS_P1;PMS_P2;Temp;Humidity;BMP_temperature;BMP_pressure;BME280_temperature;BME280_humidity;BME280_pressure;Samples;Min_cycle;Max_cycle;Signal;HPM_P1;HPM_P2
2021/09/06 00:00:52;;;;;;;7.50;5.20;;;11.20;99.90;;;;;;6250732;28;20201;-78
2021/09/06 00:03:55;;;;;;;4.73;4.10;;;11.20;99.90;;;;;;6251253;28;20216;-78
2021/09/06 00:06:59;;;;;;;5.97;4.83;;;11.20;99.90;;;;;;6258922;28;20207;-78
2021/09/06 00:10:35;;;;;;;5.50;4.53;;;11.20;99.90;;;;;;6273916;28;20200;-78
2021/09/06 00:13:39;;;;;;;9.30;5.30;;;11.20;99.90;;;;;;6274003;28;20232;-78
2021/09/06 00:16:42;;;;;;;7.87;4.70;;;11.20;99.90;;;;;;6252432;28;20197;-78
2021/09/06 00:19:44;;;;;;;6.40;4.47;;;11.10;99.90;;;;;;6274311;28;20214;-78
2021/09/06 00:22:46;;;;;;;8.20;4.60;;;11.10;99.90;;;;;;6257107;28;20243;-78
2021/09/06 00:25:49;;;;;;;5.70;4.77;;;11.10;99.90;;;;;;6273748;28;20201;-78
2021/09/06 00:28:51;;;;;;;7.10;4.63;;;11.00;99.90;;;;;;6256001;28;20575;-78
2021/09/06 00:31:54;;;;;;;6.27;4.63;;;11.00;99.90;;;;;;6279665;28;20735;-78
2021/09/06 00:34:56;;;;;;;8.97;4.60;;;11.10;99.90;;;;;;6243039;28;20666;-78
2021/09/06 00:37:59;;;;;;;7.80;4.80;;;11.00;99.90;;;;;;6239318;28;20196;-78
2021/09/06 00:41:01;;;;;;;7.27;4.50;;;11.00;99.90;;;;;;6256924;28;20200;-79
2021/09/06 00:44:04;;;;;;;6.20;4.40;;;11.00;99.90;;;;;;6273061;28;20294;-78
2021/09/06 00:47:07;;;;;;;6.60;4.43;;;11.00;99.90;;;;;;6256777;28;20191;-78
2021/09/06 00:50:13;;;;;;;5.07;4.10;;;11.00;99.90;;;;;;6273861;28;20199;-78
2021/09/06 00:53:16;;;;;;;5.37;4.30;;;11.00;99.90;;;;;;6272132;28;20254;-78
2021/09/06 00:56:21;;;;;;;5.33;4.70;;;10.90;99.90;;;;;;6256743;28;20195;-78
2021/09/06 00:59:25;;;;;;;5.00;4.50;;;10.90;99.90;;;;;;6256967;28;20694;-78
2021/09/06 01:02:27;;;;;;;6.43;4.77;;;10.90;99.90;;;;;;6272543;28;20207;-78
2021/09/06 01:05:31;;;;;;;5.40;4.40;;;10.80;99.90;;;;;;6257914;28;20536;-78
2021/09/06 01:08:52;;;;;;;7.53;4.33;;;10.80;99.90;;;;;;6274436;28;20205;-78
2021/09/06 01:12:33;;;;;;;8.27;5.07;;;10.80;99.90;;;;;;6233032;28;20196;-78
2021/09/06 01:15:36;;;;;;;6.77;5.07;;;10.80;99.90;;;;;;6246712;28;20193;-78
2021/09/06 01:18:40;;;;;;;5.73;5.07;;;10.70;99.90;;;;;;6273590;28;20187;-78
2021/09/06 01:21:42;;;;;;;5.90;4.53;;;10.70;99.90;;;;;;6272326;28;20214;-78
2021/09/06 01:25:20;;;;;;;6.30;4.77;;;10.70;99.90;;;;;;6210946;28;20683;-78
2021/09/06 01:28:25;;;;;;;8.07;5.37;;;10.70;99.90;;;;;;6272671;28;20189;-78
2021/09/06 01:31:30;;;;;;;6.53;4.80;;;10.60;99.90;;;;;;6271887;28;20222;-78
2021/09/06 01:34:32;;;;;;;6.40;5.23;;;10.60;99.90;;;;;;6251726;28;20211;-78
2021/09/06 01:37:37;;;;;;;6.47;4.90;;;10.50;99.90;;;;;;6265227;28;20599;-78
2021/09/06 01:40:39;;;;;;;6.37;4.93;;;10.50;99.90;;;;;;6259752;28;20184;-78
2021/09/06 01:43:46;;;;;;;6.90;5.10;;;10.50;99.90;;;;;;6257596;28;20579;-78
2021/09/06 01:46:49;;;;;;;6.93;4.97;;;10.50;99.90;;;;;;6271792;28;20677;-78
2021/09/06 01:49:52;;;;;;;6.27;5.13;;;10.50;99.90;;;;;;6271762;28;20325;-78
2021/09/06 01:52:54;;;;;;;6.17;4.70;;;10.50;99.90;;;;;;6270732;28;20208;-78
2021/09/06 01:55:56;;;;;;;6.87;5.03;;;10.50;99.90;;;;;;6246879;28;20622;-79
2021/09/06 01:58:59;;;;;;;4.83;4.20;;;10.50;99.90;;;;;;6260568;28;20686;-79
2021/09/06 02:02:01;;;;;;;5.33;4.63;;;10.40;99.90;;;;;;6281768;28;20298;-78
2021/09/06 02:05:12;;;;;;;7.20;4.83;;;10.40;99.90;;;;;;6267667;28;20211;-78
2021/09/06 02:08:18;;;;;;;6.30;5.03;;;10.40;99.90;;;;;;6271147;28;20196;-78
2021/09/06 02:11:21;;;;;;;5.67;4.40;;;10.40;99.90;;;;;;6252468;28;20201;-78
2021/09/06 02:14:24;;;;;;;5.47;4.30;;;10.40;99.90;;;;;;6247442;28;20587;-78
2021/09/06 02:17:27;;;;;;;5.77;4.63;;;10.30;99.90;;;;;;6266776;28;20200;-78
2021/09/06 02:20:30;;;;;;;5.97;4.47;;;10.30;99.90;;;;;;6270401;28;20204;-78
2021/09/06 02:23:33;;;;;;;6.07;4.30;;;10.30;99.90;;;;;;6262673;28;20224;-78
2021/09/06 02:26:36;;;;;;;6.50;4.40;;;10.20;99.90;;;;;;6285785;28;20693;-78
2021/09/06 02:29:43;;;;;;;10.20;4.93;;;10.30;99.90;;;;;;6270997;28;20215;-79
2021/09/06 02:32:55;;;;;;;5.87;4.53;;;10.20;99.90;;;;;;6265019;28;20215;-78
2021/09/06 02:36:19;;;;;;;7.80;4.97;;;10.20;99.90;;;;;;6263699;28;20290;-78
2021/09/06 02:39:23;;;;;;;7.30;4.40;;;10.20;99.90;;;;;;6248949;28;20198;-78
2021/09/06 02:42:25;;;;;;;7.53;4.80;;;10.20;99.90;;;;;;6258884;28;20219;-78
2021/09/06 02:45:30;;;;;;;7.43;4.93;;;10.10;99.90;;;;;;6262838;28;20193;-78
2021/09/06 02:48:33;;;;;;;4.70;4.20;;;10.10;99.90;;;;;;6251899;28;20202;-78
2021/09/06 02:51:35;;;;;;;7.80;4.47;;;10.10;99.90;;;;;;6254052;28;20575;-79
2021/09/06 02:54:38;;;;;;;5.23;4.57;;;10.10;99.90;;;;;;6270889;28;20277;-78
2021/09/06 02:57:40;;;;;;;8.53;4.83;;;10.10;99.90;;;;;;6270892;28;20207;-78
2021/09/06 03:00:43;;;;;;;6.07;4.30;;;10.10;99.90;;;;;;6270358;28;20245;-78
2021/09/06 03:03:45;;;;;;;7.30;4.50;;;10.10;99.90;;;;;;6254689;28;20287;-78
2021/09/06 03:06:49;;;;;;;5.97;4.27;;;10.10;99.90;;;;;;6245598;28;20192;-78
2021/09/06 03:09:54;;;;;;;6.33;4.67;;;10.00;99.90;;;;;;6271031;28;20337;-78
2021/09/06 03:12:56;;;;;;;5.40;4.10;;;10.00;99.90;;;;;;6270583;28;20192;-78
2021/09/06 03:15:59;;;;;;;5.87;4.47;;;10.00;99.90;;;;;;6251855;28;20205;-78
2021/09/06 03:19:02;;;;;;;5.20;4.40;;;9.90;99.90;;;;;;6227363;28;20560;-78
2021/09/06 03:22:11;;;;;;;5.43;3.73;;;9.90;99.90;;;;;;6225809;28;20729;-79
2021/09/06 03:25:14;;;;;;;5.70;4.37;;;9.90;99.90;;;;;;6247667;28;20218;-78
2021/09/06 03:28:16;;;;;;;6.60;3.93;;;9.90;99.90;;;;;;6250116;28;20220;-79
2021/09/06 03:31:19;;;;;;;5.30;3.80;;;9.80;99.90;;;;;;6274809;28;20645;-78
2021/09/06 03:34:21;;;;;;;7.23;4.23;;;9.80;99.90;;;;;;6274337;28;20187;-79
2021/09/06 03:37:25;;;;;;;4.30;3.77;;;9.80;99.90;;;;;;6258243;28;20277;-78
2021/09/06 03:40:28;;;;;;;6.53;4.70;;;9.80;99.90;;;;;;6269854;28;20648;-79
2021/09/06 03:43:30;;;;;;;5.60;4.60;;;9.80;99.90;;;;;;6250972;28;20684;-78
2021/09/06 03:46:33;;;;;;;7.40;4.23;;;9.80;99.90;;;;;;6266654;28;20210;-79
2021/09/06 03:49:37;;;;;;;5.40;3.93;;;9.80;99.90;;;;;;6290765;28;20306;-78
2021/09/06 03:52:41;;;;;;;7.13;4.80;;;9.70;99.90;;;;;;6257993;28;20191;-79
2021/09/06 03:55:44;;;;;;;5.67;4.13;;;9.70;99.90;;;;;;6256109;28;20202;-78
2021/09/06 03:58:47;;;;;;;5.47;4.30;;;9.70;99.90;;;;;;6271324;28;20214;-78
2021/09/06 04:01:51;;;;;;;4.67;3.60;;;9.70;99.90;;;;;;6266310;28;20196;-78
2021/09/06 04:04:58;;;;;;;5.27;4.03;;;9.70;99.90;;;;;;6274434;28;20203;-79
2021/09/06 04:08:01;;;;;;;4.83;4.23;;;9.70;99.90;;;;;;6274100;28;20539;-78
2021/09/06 04:11:03;;;;;;;7.60;4.20;;;9.70;99.90;;;;;;6274078;28;20226;-78
2021/09/06 04:14:12;;;;;;;4.57;3.33;;;9.70;99.90;;;;;;6270908;28;20218;-78
2021/09/06 04:17:15;;;;;;;4.67;3.57;;;9.60;99.90;;;;;;6224664;28;20197;-78
2021/09/06 04:20:20;;;;;;;5.93;4.10;;;9.70;99.90;;;;;;6271271;28;20234;-78
2021/09/06 04:23:23;;;;;;;4.70;3.77;;;9.60;99.90;;;;;;6246531;28;20397;-79
2021/09/06 04:26:29;;;;;;;8.07;4.20;;;9.60;99.90;;;;;;6272180;28;20553;-78
2021/09/06 04:29:31;;;;;;;6.60;4.17;;;9.60;99.90;;;;;;6256880;28;20596;-79
2021/09/06 04:32:34;;;;;;;4.87;3.90;;;9.60;99.90;;;;;;6263849;28;20227;-79
2021/09/06 04:35:36;;;;;;;4.53;3.70;;;9.60;99.90;;;;;;6271621;28;20226;-79
2021/09/06 04:38:39;;;;;;;5.03;3.73;;;9.60;99.90;;;;;;6257168;28;20213;-78
2021/09/06 04:41:41;;;;;;;7.47;4.13;;;9.60;99.90;;;;;;6256881;28;20268;-79
2021/09/06 04:44:44;;;;;;;4.30;3.60;;;9.60;99.90;;;;;;6223514;28;20220;-78
2021/09/06 04:47:47;;;;;;;5.67;3.80;;;9.60;99.90;;;;;;6267344;28;20203;-78
2021/09/06 04:50:51;;;;;;;6.40;4.03;;;9.60;99.90;;;;;;6256264;28;20203;-78
2021/09/06 04:53:53;;;;;;;6.97;4.00;;;9.60;99.90;;;;;;6249929;28;20680;-79
2021/09/06 04:56:58;;;;;;;4.37;3.70;;;9.60;99.90;;;;;;6260131;28;20659;-79
2021/09/06 05:00:00;;;;;;;5.47;4.23;;;9.70;99.90;;;;;;6273921;28;20195;-79
2021/09/06 05:03:04;;;;;;;4.70;3.93;;;9.60;99.90;;;;;;6268181;28;20222;-79
2021/09/06 05:06:08;;;;;;;5.07;4.00;;;9.70;99.90;;;;;;6228652;28;20225;-79
2021/09/06 05:09:10;;;;;;;8.03;4.10;;;9.70;99.90;;;;;;6223147;28;20608;-78
2021/09/06 05:12:13;;;;;;;5.50;4.27;;;9.70;99.90;;;;;;6270645;28;20207;-79
2021/09/06 05:15:15;;;;;;;6.27;4.40;;;9.70;99.90;;;;;;6259996;28;20925;-78
2021/09/06 05:18:21;;;;;;;4.90;3.80;;;9.80;99.90;;;;;;6281397;28;20274;-79
2021/09/06 05:21:24;;;;;;;5.33;4.13;;;9.80;99.90;;;;;;6271743;28;20198;-79
2021/09/06 05:24:28;;;;;;;6.30;4.23;;;9.80;99.90;;;;;;6273092;28;20624;-79
2021/09/06 05:27:31;;;;;;;5.60;3.80;;;9.90;99.90;;;;;;6271749;28;20269;-78
2021/09/06 05:30:35;;;;;;;4.93;3.87;;;9.90;99.90;;;;;;6271809;28;20211;-79
2021/09/06 05:33:37;;;;;;;5.67;4.13;;;10.00;99.90;;;;;;6264098;28;20204;-79
2021/09/06 05:36:40;;;;;;;5.13;3.67;;;10.00;99.90;;;;;;6271860;28;20196;-79
2021/09/06 05:39:43;;;;;;;4.57;3.47;;;10.10;99.90;;;;;;6271466;28;20665;-79
2021/09/06 05:42:45;;;;;;;5.73;4.50;;;10.10;99.90;;;;;;6271428;28;20219;-79
2021/09/06 05:45:47;;;;;;;5.33;4.47;;;10.20;99.90;;;;;;6254933;28;20222;-79
2021/09/06 05:48:50;;;;;;;6.17;4.40;;;10.20;99.90;;;;;;6233636;28;20287;-78
2021/09/06 05:51:53;;;;;;;8.07;4.40;;;10.20;99.90;;;;;;6258391;28;20199;-79
2021/09/06 05:55:21;;;;;;;6.13;4.47;;;10.30;99.90;;;;;;6271324;28;20242;-78
2021/09/06 05:58:24;;;;;;;6.17;4.00;;;10.30;99.90;;;;;;6264779;28;20517;-79
2021/09/06 06:01:26;;;;;;;6.77;4.17;;;10.40;99.90;;;;;;6266233;28;20192;-78
2021/09/06 06:04:29;;;;;;;10.33;4.00;;;10.40;99.90;;;;;;6255227;28;20593;-78
2021/09/06 06:07:35;;;;;;;6.27;4.53;;;10.50;99.90;;;;;;6271463;28;20199;-79
2021/09/06 06:10:37;;;;;;;6.43;4.20;;;10.50;99.90;;;;;;6270765;28;20204;-79
2021/09/06 06:13:42;;;;;;;5.03;4.13;;;10.60;99.90;;;;;;6271178;28;20547;-79
2021/09/06 06:16:45;;;;;;;5.77;4.17;;;10.70;99.90;;;;;;6262404;28;20191;-79
2021/09/06 06:19:47;;;;;;;5.73;4.23;;;10.80;99.90;;;;;;6270668;28;20195;-79
2021/09/06 06:23:08;;;;;;;5.57;4.20;;;10.80;99.90;;;;;;6259566;28;20682;-79
2021/09/06 06:26:20;;;;;;;5.20;4.40;;;10.90;99.90;;;;;;6272158;28;20219;-79
2021/09/06 06:29:22;;;;;;;6.17;4.60;;;11.00;99.90;;;;;;6270661;28;20188;-79
2021/09/06 06:32:25;;;;;;;4.87;3.83;;;11.10;99.90;;;;;;6266991;28;20220;-79
2021/09/06 06:35:38;;;;;;;4.47;3.87;;;11.10;99.90;;;;;;6263581;28;20283;-79
2021/09/06 06:38:40;;;;;;;5.77;4.33;;;11.30;99.90;;;;;;6270562;28;20358;-79
2021/09/06 06:41:47;;;;;;;4.83;3.80;;;11.40;99.90;;;;;;6254127;28;20204;-79
2021/09/06 06:44:49;;;;;;;7.03;4.20;;;11.40;99.90;;;;;;6241887;28;20361;-79
2021/09/06 06:47:53;;;;;;;4.93;3.70;;;11.50;99.90;;;;;;6271745;28;20197;-79
2021/09/06 06:50:56;;;;;;;5.23;4.40;;;11.60;99.90;;;;;;6255769;28;20201;-79
2021/09/06 06:53:59;;;;;;;6.93;4.10;;;11.70;99.90;;;;;;6272991;28;20203;-79
2021/09/06 06:57:06;;;;;;;6.10;4.23;;;11.90;99.90;;;;;;6270072;28;20239;-79
2021/09/06 07:00:10;;;;;;;7.47;5.40;;;12.00;99.90;;;;;;6270381;28;20288;-76
2021/09/06 07:03:15;;;;;;;4.63;4.13;;;12.10;99.90;;;;;;6266669;28;20366;-76
2021/09/06 07:06:19;;;;;;;6.77;4.60;;;12.20;99.90;;;;;;6270315;28;20194;-77
2021/09/06 07:09:22;;;;;;;5.27;4.10;;;12.30;99.90;;;;;;6269924;28;20339;-77
2021/09/06 07:12:25;;;;;;;6.37;4.90;;;12.40;99.90;;;;;;6250100;28;20216;-76
2021/09/06 07:15:32;;;;;;;5.67;3.93;;;12.60;99.90;;;;;;6255865;28;20579;-77
2021/09/06 07:18:36;;;;;;;4.47;3.97;;;12.80;99.90;;;;;;6276662;28;20247;-77
2021/09/06 07:21:38;;;;;;;5.03;4.20;;;13.00;99.90;;;;;;6233658;28;20211;-77
2021/09/06 07:24:41;;;;;;;5.53;4.27;;;13.30;99.90;;;;;;6253253;28;20221;-77
2021/09/06 07:27:44;;;;;;;5.37;4.17;;;13.50;99.90;;;;;;6270155;28;20625;-78
2021/09/06 07:30:46;;;;;;;5.93;4.23;;;13.80;99.90;;;;;;6269583;28;20693;-77
2021/09/06 07:33:49;;;;;;;5.50;4.70;;;14.10;99.90;;;;;;6260791;28;20199;-78
2021/09/06 07:36:52;;;;;;;6.40;4.67;;;14.30;99.90;;;;;;6285106;28;20289;-78
2021/09/06 07:39:57;;;;;;;6.70;4.57;;;14.60;99.90;;;;;;6253397;28;20568;-78
2021/09/06 07:43:00;;;;;;;8.03;4.80;;;14.90;99.90;;;;;;6269363;28;20206;-78
2021/09/06 07:46:03;;;;;;;5.57;4.43;;;15.20;99.90;;;;;;6269540;28;20667;-77
2021/09/06 07:49:06;;;;;;;7.43;4.47;;;15.60;99.90;;;;;;6269660;28;20214;-80
2021/09/06 07:52:10;;;;;;;7.80;4.57;;;15.90;99.90;;;;;;6270982;28;20643;-80
2021/09/06 07:55:12;;;;;;;6.90;4.27;;;16.30;99.90;;;;;;6269457;28;20199;-80
2021/09/06 07:58:15;;;;;;;5.60;4.60;;;16.70;99.90;;;;;;6250098;28;20554;-80
2021/09/06 08:01:18;;;;;;;5.37;4.53;;;17.00;99.90;;;;;;6271122;28;20207;-80
2021/09/06 08:04:20;;;;;;;7.63;5.03;;;17.40;99.90;;;;;;6242996;28;20220;-80
2021/09/06 08:07:26;;;;;;;6.97;4.60;;;17.70;99.90;;;;;;6269227;28;20253;-80
2021/09/06 08:10:29;;;;;;;6.77;4.87;;;18.10;99.90;;;;;;6273564;28;20203;-80
2021/09/06 08:13:33;;;;;;;6.40;4.67;;;18.50;99.90;;;;;;6273702;28;20194;-80
2021/09/06 08:16:35;;;;;;;8.33;5.27;;;18.80;99.90;;;;;;6243949;28;20204;-80
2021/09/06 08:19:37;;;;;;;6.03;4.40;;;19.20;99.90;;;;;;6266836;28;20681;-79
2021/09/06 08:22:40;;;;;;;5.13;4.60;;;19.50;99.90;;;;;;6268098;28;20238;-80
2021/09/06 08:25:43;;;;;;;9.40;4.97;;;19.80;99.90;;;;;;6273190;28;20218;-80
2021/09/06 08:28:45;;;;;;;7.37;5.13;;;20.00;99.90;;;;;;6273564;28;20199;-79
2021/09/06 08:31:51;;;;;;;8.17;5.17;;;20.30;99.90;;;;;;6273132;28;20377;-79
2021/09/06 08:34:54;;;;;;;7.90;5.70;;;20.50;99.90;;;;;;6272459;28;20191;-80
2021/09/06 08:37:57;;;;;;;6.63;5.33;;;20.80;99.80;;;;;;6252338;28;20200;-80
2021/09/06 08:41:00;;;;;;;5.57;4.60;;;21.00;99.00;;;;;;6259989;28;20709;-80
2021/09/06 08:44:04;;;;;;;7.00;5.50;;;21.30;98.50;;;;;;6272781;28;20617;-80
2021/09/06 08:47:07;;;;;;;10.10;5.90;;;21.60;97.10;;;;;;6267593;28;20283;-80
2021/09/06 08:50:12;;;;;;;8.17;5.43;;;21.60;95.30;;;;;;6267000;28;20188;-80
2021/09/06 08:53:18;;;;;;;7.30;5.70;;;21.80;95.30;;;;;;6272878;28;20278;-80
2021/09/06 08:56:21;;;;;;;7.90;6.00;;;22.00;94.50;;;;;;6272578;28;20210;-80
2021/09/06 08:59:44;;;;;;;7.07;5.50;;;22.20;94.50;;;;;;6272673;28;20647;-80
2021/09/06 09:03:11;;;;;;;6.20;5.10;;;22.40;94.60;;;;;;6230284;28;20204;-80
2021/09/06 09:06:37;;;;;;;7.23;6.13;;;22.70;93.30;;;;;;6239844;28;20200;-80
2021/09/06 09:10:01;;;;;;;7.00;5.07;;;22.80;91.70;;;;;;6247465;28;20196;-80
2021/09/06 09:13:17;;;;;;;7.50;5.00;;;23.20;92.10;;;;;;6284484;28;20210;-80
2021/09/06 09:16:56;;;;;;;8.07;5.73;;;23.40;91.00;;;;;;6258969;28;20206;-79
2021/09/06 09:20:17;;;;;;;8.43;5.43;;;23.60;90.70;;;;;;6223872;28;20653;-80
2021/09/06 09:23:46;;;;;;;7.07;5.37;;;23.80;91.40;;;;;;6246577;28;20220;-80
2021/09/06 09:27:05;;;;;;;10.93;7.23;;;23.80;84.60;;;;;;6286799;28;20196;-80
2021/09/06 09:30:36;;;;;;;10.30;7.00;;;23.30;82.00;;;;;;6272405;28;20227;-80
2021/09/06 09:34:05;;;;;;;9.20;5.87;;;23.20;83.20;;;;;;6258595;28;20601;-79
2021/09/06 09:37:27;;;;;;;7.33;5.87;;;23.40;86.40;;;;;;6287111;28;20211;-79
2021/09/06 09:40:42;;;;;;;9.07;6.30;;;23.80;88.00;;;;;;6271750;28;20206;-80
2021/09/06 09:43:44;;;;;;;8.20;5.83;;;24.00;84.70;;;;;;6255176;28;20241;-79
2021/09/06 09:47:02;;;;;;;8.50;6.37;;;24.20;83.00;;;;;;6245161;28;20201;-79
2021/09/06 09:50:10;;;;;;;12.37;6.53;;;24.20;80.00;;;;;;6236680;28;20196;-79
2021/09/06 09:53:15;;;;;;;7.17;5.80;;;24.10;79.50;;;;;;6247989;28;20188;-79
2021/09/06 09:56:22;;;;;;;8.17;6.33;;;24.20;79.40;;;;;;6272581;28;20559;-80
2021/09/06 09:59:24;;;;;;;9.00;6.10;;;24.40;77.30;;;;;;6264325;28;20179;-80
2021/09/06 10:02:31;;;;;;;8.57;7.00;;;24.70;75.50;;;;;;6271232;28;20565;-79
2021/09/06 10:05:37;;;;;;;10.83;6.83;;;25.00;73.70;;;;;;6246534;28;20576;-80
2021/09/06 10:08:41;;;;;;;12.20;6.67;;;24.80;69.70;;;;;;6223253;28;20170;-79
2021/09/06 10:11:44;;;;;;;7.47;6.23;;;24.40;70.30;;;;;;6268808;28;20678;-80
2021/09/06 10:14:56;;;;;;;8.33;6.90;;;24.10;73.40;;;;;;6262646;28;20215;-79
2021/09/06 10:18:20;;;;;;;8.17;6.33;;;23.80;70.30;;;;;;6279344;28;20195;-79
2021/09/06 10:21:26;;;;;;;9.97;6.73;;;23.20;73.00;;;;;;6270809;28;20196;-79
2021/09/06 10:24:29;;;;;;;7.23;5.83;;;23.00;71.00;;;;;;6269705;28;20220;-80
2021/09/06 10:27:36;;;;;;;8.27;6.83;;;23.10;78.50;;;;;;6259920;28;20218;-79
2021/09/06 10:30:48;;;;;;;10.63;6.37;;;23.20;71.60;;;;;;6270391;28;20250;-79
2021/09/06 10:33:59;;;;;;;8.33;6.40;;;23.80;69.30;;;;;;6263203;28;20192;-80
2021/09/06 10:37:05;;;;;;;9.10;6.47;;;24.10;68.60;;;;;;6270845;28;20345;-79
2021/09/06 10:40:12;;;;;;;9.80;6.27;;;24.20;70.50;;;;;;6254134;28;20610;-80
2021/09/06 10:43:19;;;;;;;10.20;5.57;;;24.70;72.20;;;;;;6270553;28;20576;-80
2021/09/06 10:46:28;;;;;;;7.30;5.55;;;25.00;71.00;;;;;;6270421;28;20560;-80
2021/09/06 10:49:31;;;;;;;9.88;6.28;;;25.60;71.20;;;;;;6224813;28;20204;-80
2021/09/06 10:52:34;;;;;;;6.28;5.25;;;26.00;67.50;;;;;;6256485;28;20326;-79
2021/09/06 10:55:37;;;;;;;13.50;7.05;;;26.30;65.70;;;;;;6247736;28;20193;-79
2021/09/06 10:58:40;;;;;;;9.68;7.03;;;26.80;60.90;;;;;;6260542;28;20206;-80
2021/09/06 11:01:51;;;;;;;10.73;6.15;;;26.30;58.90;;;;;;6254070;28;20660;-80
2021/09/06 11:04:54;;;;;;;10.32;5.90;;;26.20;62.70;;;;;;6247468;28;20205;-80
2021/09/06 11:08:06;;;;;;;7.80;6.28;;;26.30;60.90;;;;;;6270277;28;20559;-80
2021/09/06 11:11:11;;;;;;;7.00;5.20;;;26.60;60.80;;;;;;6268693;28;20183;-80
2021/09/06 11:14:13;;;;;;;10.07;6.40;;;26.40;62.00;;;;;;6262508;28;20200;-80
2021/09/06 11:17:24;;;;;;;12.75;6.65;;;26.40;61.20;;;;;;6285706;28;20202;-80
2021/09/06 11:20:30;;;;;;;9.82;6.72;;;26.30;61.00;;;;;;6271306;28;20194;-80
2021/09/06 11:23:44;;;;;;;10.32;6.20;;;25.90;60.70;;;;;;6235434;28;20228;-79
2021/09/06 11:26:47;;;;;;;6.47;5.55;;;26.10;61.70;;;;;;6278018;28;20245;-80
2021/09/06 11:29:52;;;;;;;9.68;5.95;;;26.50;65.00;;;;;;6270013;28;20270;-80
2021/09/06 11:32:55;;;;;;;9.18;6.95;;;27.00;60.20;;;;;;6260311;28;20616;-80
2021/09/06 11:35:57;;;;;;;10.18;7.53;;;27.30;58.40;;;;;;6252423;28;20195;-80
2021/09/06 11:39:00;;;;;;;7.75;6.40;;;26.80;56.60;;;;;;6258589;28;20584;-80
2021/09/06 11:42:04;;;;;;;7.93;6.70;;;26.70;57.20;;;;;;6274701;28;20195;-79
2021/09/06 11:45:09;;;;;;;9.30;6.07;;;26.60;57.20;;;;;;6275621;28;20223;-80
2021/09/06 11:48:11;;;;;;;10.32;6.07;;;27.00;59.30;;;;;;6275098;28;20200;-79
2021/09/06 11:51:16;;;;;;;13.18;7.50;;;27.40;57.00;;;;;;6274181;28;20195;-80
2021/09/06 11:54:20;;;;;;;11.32;6.70;;;27.70;55.20;;;;;;6274635;28;20549;-80
2021/09/06 11:57:24;;;;;;;8.82;6.60;;;27.50;55.00;;;;;;6254282;28;20279;-79
2021/09/06 12:00:26;;;;;;;10.75;6.72;;;27.40;56.20;;;;;;6272623;28;20214;-80
2021/09/06 12:03:29;;;;;;;10.73;7.20;;;27.40;55.20;;;;;;6255813;28;20272;-80
2021/09/06 12:06:32;;;;;;;9.05;6.63;;;27.40;53.50;;;;;;6273876;28;20217;-80
2021/09/06 12:09:36;;;;;;;10.73;7.07;;;27.10;54.10;;;;;;6275225;28;20182;-80
2021/09/06 12:12:39;;;;;;;11.32;7.10;;;27.40;57.90;;;;;;6250852;28;20200;-80
2021/09/06 12:15:59;;;;;;;9.85;6.95;;;27.80;55.20;;;;;;6255808;28;20196;-81
2021/09/06 12:19:15;;;;;;;8.55;6.50;;;28.00;53.30;;;;;;6286023;28;20192;-80
2021/09/06 12:22:22;;;;;;;11.18;8.50;;;28.20;54.40;;;;;;6273416;28;20322;-80
2021/09/06 12:25:25;;;;;;;11.15;8.02;;;28.40;52.90;;;;;;6257085;28;20349;-80
2021/09/06 12:28:27;;;;;;;8.88;7.28;;;28.50;52.70;;;;;;6236423;28;20197;-79
2021/09/06 12:31:43;;;;;;;9.88;6.78;;;28.00;51.40;;;;;;6259724;28;20261;-80
2021/09/06 12:34:46;;;;;;;7.97;6.82;;;27.90;53.10;;;;;;6264187;28;20364;-80
2021/09/06 12:37:49;;;;;;;9.48;7.00;;;28.00;52.70;;;;;;6273570;28;20553;-80
2021/09/06 12:40:52;;;;;;;9.55;6.85;;;28.30;52.50;;;;;;6273308;28;20195;-80
2021/09/06 12:43:54;;;;;;;9.70;6.38;;;28.70;53.00;;;;;;6273072;28;20200;-80
2021/09/06 12:46:57;;;;;;;9.15;7.13;;;29.20;53.00;;;;;;6272737;28;20212;-80
2021/09/06 12:49:59;;;;;;;9.48;6.97;;;29.60;52.50;;;;;;6256190;28;20274;-80
2021/09/06 12:53:01;;;;;;;7.63;6.78;;;28.90;48.70;;;;;;6256263;28;20218;-81
2021/09/06 12:56:04;;;;;;;13.35;7.45;;;28.60;49.90;;;;;;6259317;28;20227;-79
2021/09/06 12:59:08;;;;;;;9.38;7.03;;;28.40;50.30;;;;;;6274734;28;20211;-79
2021/09/06 13:02:10;;;;;;;8.50;6.90;;;28.60;50.40;;;;;;6272927;28;20191;-80
2021/09/06 13:05:13;;;;;;;8.60;7.05;;;28.70;49.40;;;;;;6255686;28;20689;-80
2021/09/06 13:08:16;;;;;;;12.23;7.68;;;29.00;49.60;;;;;;6272755;28;20643;-80
2021/09/06 13:11:18;;;;;;;8.68;7.13;;;29.40;48.30;;;;;;6223691;28;20222;-80
2021/09/06 13:14:21;;;;;;;8.98;6.35;;;29.50;47.80;;;;;;6228064;28;20176;-80
2021/09/06 13:17:23;;;;;;;8.55;6.70;;;29.90;47.90;;;;;;6283151;28;20195;-80
2021/09/06 13:20:25;;;;;;;10.13;6.70;;;30.50;46.80;;;;;;6273495;28;20589;-80
2021/09/06 13:23:28;;;;;;;12.80;6.78;;;30.80;46.60;;;;;;6272114;28;20606;-80
2021/09/06 13:26:30;;;;;;;9.10;6.80;;;31.20;47.40;;;;;;6272166;28;20325;-80
2021/09/06 13:29:32;;;;;;;12.02;6.97;;;31.00;45.80;;;;;;6268137;28;20188;-80
2021/09/06 13:32:35;;;;;;;7.53;6.70;;;31.10;44.90;;;;;;6249556;28;20291;-80
2021/09/06 13:35:37;;;;;;;8.48;6.95;;;31.10;44.70;;;;;;6247079;28;20212;-80
2021/09/06 13:38:39;;;;;;;7.72;6.85;;;31.40;44.90;;;;;;6272209;28;20202;-80
2021/09/06 13:41:42;;;;;;;7.57;6.78;;;31.40;42.50;;;;;;6273101;28;20297;-80
2021/09/06 13:44:44;;;;;;;7.65;6.82;;;31.80;41.80;;;;;;6245877;28;20596;-80
2021/09/06 13:47:46;;;;;;;9.90;6.53;;;32.30;42.60;;;;;;6267487;28;20294;-79
2021/09/06 13:50:48;;;;;;;7.68;6.47;;;32.20;41.70;;;;;;6271394;28;20651;-80
2021/09/06 13:53:51;;;;;;;11.65;7.30;;;32.40;42.10;;;;;;6273310;28;20192;-80
2021/09/06 13:56:53;;;;;;;7.70;6.25;;;32.40;40.90;;;;;;6271487;28;20616;-79
2021/09/06 13:59:55;;;;;;;6.85;6.15;;;32.20;41.50;;;;;;6230236;28;20196;-80
2021/09/06 14:02:58;;;;;;;6.85;6.15;;;32.50;42.60;;;;;;6251571;28;20208;-80
2021/09/06 14:06:00;;;;;;;8.40;6.78;;;33.00;41.20;;;;;;6269034;28;20254;-80
2021/09/06 14:09:03;;;;;;;7.88;6.30;;;33.40;42.50;;;;;;6271283;28;20196;-79
2021/09/06 14:12:11;;;;;;;7.47;6.30;;;33.20;39.50;;;;;;6270851;28;20198;-80
2021/09/06 14:15:13;;;;;;;7.75;6.50;;;32.70;40.80;;;;;;6254624;28;20192;-80
2021/09/06 14:18:20;;;;;;;8.70;6.10;;;31.80;40.70;;;;;;6259752;28;20349;-79
2021/09/06 14:21:23;;;;;;;10.10;6.78;;;30.60;42.50;;;;;;6270484;28;20345;-80
2021/09/06 14:24:25;;;;;;;9.43;6.25;;;29.10;43.90;;;;;;6266148;28;20232;-80
2021/09/06 14:27:27;;;;;;;11.07;6.30;;;28.30;46.80;;;;;;6248712;28;20195;-80
2021/09/06 14:30:30;;;;;;;8.63;6.20;;;27.70;47.80;;;;;;6254485;28;20666;-79
2021/09/06 14:33:32;;;;;;;7.22;5.88;;;27.30;47.50;;;;;;6247373;28;20294;-79
2021/09/06 14:36:35;;;;;;;8.80;6.07;;;27.00;49.50;;;;;;6267405;28;20195;-79
2021/09/06 14:39:37;;;;;;;7.03;5.90;;;26.70;48.60;;;;;;6270384;28;20199;-79
2021/09/06 14:42:40;;;;;;;7.60;6.43;;;27.00;49.70;;;;;;6270431;28;20674;-79
2021/09/06 14:45:42;;;;;;;7.43;6.18;;;27.00;48.40;;;;;;6270444;28;20227;-79
2021/09/06 14:48:44;;;;;;;9.70;6.10;;;27.80;47.80;;;;;;6264378;28;20196;-79
2021/09/06 14:51:48;;;;;;;6.75;5.70;;;28.80;46.10;;;;;;6248654;28;20282;-79
2021/09/06 14:54:50;;;;;;;7.65;6.03;;;29.00;45.80;;;;;;6270507;28;20198;-79
2021/09/06 14:57:53;;;;;;;7.95;6.07;;;29.10;45.70;;;;;;6270424;28;20594;-79
2021/09/06 15:00:55;;;;;;;9.60;6.35;;;29.00;46.60;;;;;;6270451;28;20286;-79
2021/09/06 15:04:17;;;;;;;5.95;5.35;;;28.50;46.30;;;;;;6256377;28;20207;-79
2021/09/06 15:07:20;;;;;;;8.15;5.72;;;28.30;48.60;;;;;;6264732;28;20582;-79
2021/09/06 15:10:23;;;;;;;7.38;5.95;;;28.90;46.90;;;;;;6256754;28;20273;-79
2021/09/06 15:13:26;;;;;;;8.68;5.90;;;29.30;46.30;;;;;;6261567;28;20191;-79
2021/09/06 15:16:28;;;;;;;8.13;5.60;;;29.00;47.30;;;;;;6260538;28;20248;-79
2021/09/06 15:19:31;;;;;;;6.43;5.65;;;27.90;47.80;;;;;;6275112;28;20188;-78
2021/09/06 15:22:33;;;;;;;8.00;5.78;;;27.00;49.80;;;;;;6276248;28;20231;-79
2021/09/06 15:25:35;;;;;;;8.32;5.85;;;26.10;50.50;;;;;;6276089;28;20282;-78
2021/09/06 15:28:38;;;;;;;7.57;6.10;;;25.40;52.90;;;;;;6274959;28;20195;-79
2021/09/06 15:31:50;;;;;;;6.80;6.10;;;24.90;53.70;;;;;;6256775;28;20211;-79
2021/09/06 15:34:55;;;;;;;6.75;5.38;;;24.50;55.10;;;;;;6283427;28;20204;-79
2021/09/06 15:37:59;;;;;;;10.07;5.78;;;24.00;57.10;;;;;;6258316;28;20200;-79
2021/09/06 15:41:03;;;;;;;5.97;5.38;;;23.60;58.30;;;;;;6275694;28;20202;-79
2021/09/06 15:44:08;;;;;;;7.00;5.57;;;23.30;59.30;;;;;;6274542;28;20191;-78
2021/09/06 15:47:14;;;;;;;6.13;5.40;;;23.10;61.00;;;;;;6269369;28;20722;-79
2021/09/06 15:50:16;;;;;;;7.50;6.15;;;22.90;62.90;;;;;;6267998;28;20208;-78
2021/09/06 15:53:18;;;;;;;7.83;5.80;;;22.80;64.50;;;;;;6275713;28;20202;-78
2021/09/06 15:56:21;;;;;;;8.03;6.17;;;22.70;65.80;;;;;;6273969;28;20199;-78
2021/09/06 15:59:23;;;;;;;6.10;5.47;;;22.60;66.60;;;;;;6243636;28;20196;-78
2021/09/06 16:02:25;;;;;;;6.00;5.40;;;22.40;66.70;;;;;;6266027;28;20191;-78
2021/09/06 16:05:28;;;;;;;7.40;5.50;;;22.20;67.60;;;;;;6262569;28;20585;-78